sensor_id;sensor_type;location;lat;lon;timestamp;P1;durP1;ratioP1;P2;durP2;ratioP2
39214;SDS011;24932;51.746;14.334;2023-06-10T00:00:40;17.7;;;6.22;;
39214;SDS011;24932;51.746;14.334;2023-06-10T00:04:40;9.27;;;6.2;;
39214;SDS011;24932;51.746;14.334;2023-06-10T00:08:40;12.4;;;6.78;;
39214;SDS011;24932;51.746;14.334;2023-06-10T00:12:40;18.37;;;7.07;;
39214;SDS011;24932;51.746;14.334;2023-06-10T00:16:40;15.55;;;7.07;;
39214;SDS011;24932;51.746;14.334;2023-06-10T00:20:40;17.23;;;7.7;;
39214;SDS011;24932;51.746;14.334;2023-06-10T00:24:40;14.18;;;6.62;;
39214;SDS011;24932;51.746;14.334;2023-06-10T00:28:40;12.05;;;6.95;;
39214;SDS011;24932;51.746;14.334;2023-06-10T00:32:40;11.23;;;7.05;;
39214;SDS011;24932;51.746;14.334;2023-06-10T00:36:40;8.07;;;6.22;;
39214;SDS011;24932;51.746;14.334;2023-06-10T00:40:40;12.6;;;7.55;;
39214;SDS011;24932;51.746;14.334;2023-06-10T00:44:40;17.35;;;6.97;;
39214;SDS011;24932;51.746;14.334;2023-06-10T00:48:40;10.9;;;7.03;;
39214;SDS011;24932;51.746;14.334;2023-06-10T00:52:41;11.68;;;6.3;;
39214;SDS011;24932;51.746;14.334;2023-06-10T00:56:40;15.27;;;7.9;;
39214;SDS011;24932;51.746;14.334;2023-06-10T01:00:40;13.25;;;6.18;;
39214;SDS011;24932;51.746;14.334;2023-06-10T01:04:40;9.95;;;6.35;;
39214;SDS011;24932;51.746;14.334;2023-06-10T01:08:40;13.7;;;6.55;;
39214;SDS011;24932;51.746;14.334;2023-06-10T01:12:41;13.93;;;5.8;;
39214;SDS011;24932;51.746;14.334;2023-06-10T01:16:40;15.45;;;6.75;;
39214;SDS011;24932;51.746;14.334;2023-06-10T01:20:41;13.68;;;6.85;;
39214;SDS011;24932;51.746;14.334;2023-06-10T01:24:40;9.57;;;6.35;;
39214;SDS011;24932;51.746;14.334;2023-06-10T01:28:48;10.43;;;6.57;;
39214;SDS011;24932;51.746;14.334;2023-06-10T01:32:43;11.93;;;7.1;;
39214;SDS011;24932;51.746;14.334;2023-06-10T01:36:41;12.15;;;6.6;;
39214;SDS011;24932;51.746;14.334;2023-06-10T01:40:41;16.98;;;6.9;;
39214;SDS011;24932;51.746;14.334;2023-06-10T01:44:41;11.57;;;7.25;;
39214;SDS011;24932;51.746;14.334;2023-06-10T01:48:41;18.9;;;9.23;;
39214;SDS011;24932;51.746;14.334;2023-06-10T01:52:40;17.62;;;8.02;;
39214;SDS011;24932;51.746;14.334;2023-06-10T01:56:40;11.15;;;7.05;;
39214;SDS011;24932;51.746;14.334;2023-06-10T02:00:40;13.55;;;7.8;;
39214;SDS011;24932;51.746;14.334;2023-06-10T02:04:41;16.52;;;7.53;;
39214;SDS011;24932;51.746;14.334;2023-06-10T02:08:40;13.55;;;9.2;;
39214;SDS011;24932;51.746;14.334;2023-06-10T02:12:40;13.9;;;7.6;;
39214;SDS011;24932;51.746;14.334;2023-06-10T02:16:40;16.2;;;8.95;;
39214;SDS011;24932;51.746;14.334;2023-06-10T02:20:41;13.27;;;7.8;;
39214;SDS011;24932;51.746;14.334;2023-06-10T02:24:40;18.0;;;9.57;;
39214;SDS011;24932;51.746;14.334;2023-06-10T02:28:42;11.95;;;8.57;;
39214;SDS011;24932;51.746;14.334;2023-06-10T02:32:40;25.55;;;9.02;;
39214;SDS011;24932;51.746;14.334;2023-06-10T02:36:40;13.27;;;9.57;;
39214;SDS011;24932;51.746;14.334;2023-06-10T02:40:39;14.15;;;9.8;;
39214;SDS011;24932;51.746;14.334;2023-06-10T02:44:40;15.7;;;9.8;;
39214;SDS011;24932;51.746;14.334;2023-06-10T02:48:40;19.02;;;10.05;;
39214;SDS011;24932;51.746;14.334;2023-06-10T02:52:40;15.13;;;9.48;;
39214;SDS011;24932;51.746;14.334;2023-06-10T02:56:40;13.8;;;9.98;;
39214;SDS011;24932;51.746;14.334;2023-06-10T03:00:40;21.75;;;10.15;;
39214;SDS011;24932;51.746;14.334;2023-06-10T03:04:40;25.7;;;10.95;;
39214;SDS011;24932;51.746;14.334;2023-06-10T03:08:41;20.85;;;11.27;;
39214;SDS011;24932;51.746;14.334;2023-06-10T03:12:40;18.58;;;11.48;;
39214;SDS011;24932;51.746;14.334;2023-06-10T03:16:40;20.92;;;11.93;;
39214;SDS011;24932;51.746;14.334;2023-06-10T03:20:41;21.85;;;12.43;;
39214;SDS011;24932;51.746;14.334;2023-06-10T03:24:40;17.27;;;10.8;;
39214;SDS011;24932;51.746;14.334;2023-06-10T03:28:40;20.37;;;11.65;;
39214;SDS011;24932;51.746;14.334;2023-06-10T03:32:40;14.85;;;10.18;;
39214;SDS011;24932;51.746;14.334;2023-06-10T03:36:39;14.2;;;9.8;;
39214;SDS011;24932;51.746;14.334;2023-06-10T03:40:40;14.68;;;9.9;;
39214;SDS011;24932;51.746;14.334;2023-06-10T03:44:40;15.57;;;8.27;;
39214;SDS011;24932;51.746;14.334;2023-06-10T03:48:40;13.38;;;7.0;;
39214;SDS011;24932;51.746;14.334;2023-06-10T03:52:40;13.35;;;7.6;;
39214;SDS011;24932;51.746;14.334;2023-06-10T03:56:40;16.75;;;7.18;;
39214;SDS011;24932;51.746;14.334;2023-06-10T04:00:40;15.27;;;7.9;;
39214;SDS011;24932;51.746;14.334;2023-06-10T04:04:41;14.23;;;7.87;;
39214;SDS011;24932;51.746;14.334;2023-06-10T04:08:41;9.3;;;7.68;;
39214;SDS011;24932;51.746;14.334;2023-06-10T04:12:40;14.02;;;6.72;;
39214;SDS011;24932;51.746;14.334;2023-06-10T04:16:41;11.77;;;7.6;;
39214;SDS011;24932;51.746;14.334;2023-06-10T04:20:40;11.5;;;7.2;;
39214;SDS011;24932;51.746;14.334;2023-06-10T04:24:40;10.02;;;6.57;;
39214;SDS011;24932;51.746;14.334;2023-06-10T04:28:42;19.37;;;7.1;;
39214;SDS011;24932;51.746;14.334;2023-06-10T04:32:39;10.68;;;6.28;;
39214;SDS011;24932;51.746;14.334;2023-06-10T04:36:40;9.88;;;7.15;;
39214;SDS011;24932;51.746;14.334;2023-06-10T04:40:39;7.9;;;6.47;;
39214;SDS011;24932;51.746;14.334;2023-06-10T04:44:41;10.6;;;7.37;;
39214;SDS011;24932;51.746;14.334;2023-06-10T04:48:40;12.5;;;6.68;;
39214;SDS011;24932;51.746;14.334;2023-06-10T04:52:40;12.55;;;7.57;;
39214;SDS011;24932;51.746;14.334;2023-06-10T04:56:40;12.5;;;7.5;;
39214;SDS011;24932;51.746;14.334;2023-06-10T05:00:41;11.7;;;8.15;;
39214;SDS011;24932;51.746;14.334;2023-06-10T05:04:40;11.77;;;8.15;;
39214;SDS011;24932;51.746;14.334;2023-06-10T05:08:40;12.75;;;8.38;;
39214;SDS011;24932;51.746;14.334;2023-06-10T05:12:40;13.32;;;7.62;;
39214;SDS011;24932;51.746;14.334;2023-06-10T05:16:41;9.7;;;8.0;;
39214;SDS011;24932;51.746;14.334;2023-06-10T05:20:40;14.5;;;8.4;;
39214;SDS011;24932;51.746;14.334;2023-06-10T05:24:40;9.9;;;7.9;;
39214;SDS011;24932;51.746;14.334;2023-06-10T05:28:40;12.6;;;8.63;;
39214;SDS011;24932;51.746;14.334;2023-06-10T05:32:40;18.02;;;8.57;;
39214;SDS011;24932;51.746;14.334;2023-06-10T05:36:40;12.82;;;8.65;;
39214;SDS011;24932;51.746;14.334;2023-06-10T05:40:40;15.13;;;8.95;;
39214;SDS011;24932;51.746;14.334;2023-06-10T05:44:41;14.9;;;9.05;;
39214;SDS011;24932;51.746;14.334;2023-06-10T05:48:40;13.93;;;8.65;;
39214;SDS011;24932;51.746;14.334;2023-06-10T05:52:40;11.6;;;8.13;;
39214;SDS011;24932;51.746;14.334;2023-06-10T05:56:40;14.82;;;9.63;;
39214;SDS011;24932;51.746;14.334;2023-06-10T06:00:40;12.77;;;8.95;;
39214;SDS011;24932;51.746;14.334;2023-06-10T06:04:41;10.75;;;7.87;;
39214;SDS011;24932;51.746;14.334;2023-06-10T06:08:40;10.13;;;8.68;;
39214;SDS011;24932;51.746;14.334;2023-06-10T06:12:40;10.07;;;7.8;;
39214;SDS011;24932;51.746;14.334;2023-06-10T06:16:40;9.43;;;8.07;;
39214;SDS011;24932;51.746;14.334;2023-06-10T06:20:40;17.2;;;8.9;;
39214;SDS011;24932;51.746;14.334;2023-06-10T06:24:40;10.18;;;8.43;;
39214;SDS011;24932;51.746;14.334;2023-06-10T06:28:40;12.13;;;8.3;;
39214;SDS011;24932;51.746;14.334;2023-06-10T06:32:40;12.25;;;9.2;;
39214;SDS011;24932;51.746;14.334;2023-06-10T06:36:40;17.02;;;8.73;;
39214;SDS011;24932;51.746;14.334;2023-06-10T06:40:41;11.68;;;9.07;;
39214;SDS011;24932;51.746;14.334;2023-06-10T06:44:40;19.0;;;8.38;;
39214;SDS011;24932;51.746;14.334;2023-06-10T06:48:41;14.45;;;7.65;;
39214;SDS011;24932;51.746;14.334;2023-06-10T06:52:40;16.15;;;8.0;;
39214;SDS011;24932;51.746;14.334;2023-06-10T06:56:40;15.0;;;9.32;;
39214;SDS011;24932;51.746;14.334;2023-06-10T07:00:39;17.48;;;7.75;;
39214;SDS011;24932;51.746;14.334;2023-06-10T07:04:40;13.23;;;7.95;;
39214;SDS011;24932;51.746;14.334;2023-06-10T07:08:40;27.17;;;8.57;;
39214;SDS011;24932;51.746;14.334;2023-06-10T07:12:40;20.95;;;8.57;;
39214;SDS011;24932;51.746;14.334;2023-06-10T07:16:40;11.45;;;7.85;;
39214;SDS011;24932;51.746;14.334;2023-06-10T07:20:41;12.95;;;7.65;;
39214;SDS011;24932;51.746;14.334;2023-06-10T07:24:40;13.0;;;7.55;;
39214;SDS011;24932;51.746;14.334;2023-06-10T07:28:40;14.35;;;8.02;;
39214;SDS011;24932;51.746;14.334;2023-06-10T07:32:40;15.0;;;8.55;;
39214;SDS011;24932;51.746;14.334;2023-06-10T07:36:40;13.32;;;6.87;;
39214;SDS011;24932;51.746;14.334;2023-06-10T07:40:40;12.37;;;7.7;;
39214;SDS011;24932;51.746;14.334;2023-06-10T07:44:40;26.0;;;7.45;;
39214;SDS011;24932;51.746;14.334;2023-06-10T07:48:41;15.93;;;6.9;;
39214;SDS011;24932;51.746;14.334;2023-06-10T07:52:40;17.1;;;7.6;;
39214;SDS011;24932;51.746;14.334;2023-06-10T07:56:40;13.13;;;7.45;;
39214;SDS011;24932;51.746;14.334;2023-06-10T08:00:40;13.0;;;7.3;;
39214;SDS011;24932;51.746;14.334;2023-06-10T08:04:41;8.57;;;7.55;;
39214;SDS011;24932;51.746;14.334;2023-06-10T08:08:40;14.87;;;7.43;;
39214;SDS011;24932;51.746;14.334;2023-06-10T08:12:40;17.37;;;7.68;;
39214;SDS011;24932;51.746;14.334;2023-06-10T08:16:41;15.7;;;7.35;;
39214;SDS011;24932;51.746;14.334;2023-06-10T08:20:41;14.68;;;7.85;;
39214;SDS011;24932;51.746;14.334;2023-06-10T08:24:40;10.13;;;6.8;;
39214;SDS011;24932;51.746;14.334;2023-06-10T08:28:40;9.18;;;7.15;;
39214;SDS011;24932;51.746;14.334;2023-06-10T08:32:40;10.85;;;7.1;;
39214;SDS011;24932;51.746;14.334;2023-06-10T08:36:40;9.8;;;6.72;;
39214;SDS011;24932;51.746;14.334;2023-06-10T08:40:40;13.85;;;6.97;;
39214;SDS011;24932;51.746;14.334;2023-06-10T08:44:40;11.43;;;6.6;;
39214;SDS011;24932;51.746;14.334;2023-06-10T08:48:42;12.43;;;6.5;;
39214;SDS011;24932;51.746;14.334;2023-06-10T08:52:41;12.9;;;6.6;;
39214;SDS011;24932;51.746;14.334;2023-06-10T08:56:40;13.05;;;6.85;;
39214;SDS011;24932;51.746;14.334;2023-06-10T09:00:41;10.32;;;5.9;;
39214;SDS011;24932;51.746;14.334;2023-06-10T09:04:41;11.2;;;6.03;;
39214;SDS011;24932;51.746;14.334;2023-06-10T09:08:40;9.82;;;6.3;;
39214;SDS011;24932;51.746;14.334;2023-06-10T09:12:40;9.8;;;5.9;;
39214;SDS011;24932;51.746;14.334;2023-06-10T09:16:40;7.28;;;5.68;;
39214;SDS011;24932;51.746;14.334;2023-06-10T09:20:41;8.93;;;6.35;;
39214;SDS011;24932;51.746;14.334;2023-06-10T09:24:40;16.2;;;6.53;;
39214;SDS011;24932;51.746;14.334;2023-06-10T09:28:41;14.5;;;5.6;;
39214;SDS011;24932;51.746;14.334;2023-06-10T09:32:41;7.95;;;4.93;;
39214;SDS011;24932;51.746;14.334;2023-06-10T09:36:40;13.5;;;5.72;;
39214;SDS011;24932;51.746;14.334;2023-06-10T09:40:48;11.65;;;5.47;;
39214;SDS011;24932;51.746;14.334;2023-06-10T09:44:41;8.55;;;4.75;;
39214;SDS011;24932;51.746;14.334;2023-06-10T09:48:41;5.95;;;4.8;;
39214;SDS011;24932;51.746;14.334;2023-06-10T09:52:41;11.7;;;5.15;;
39214;SDS011;24932;51.746;14.334;2023-06-10T09:56:40;7.28;;;5.1;;
39214;SDS011;24932;51.746;14.334;2023-06-10T10:00:40;14.27;;;5.2;;
39214;SDS011;24932;51.746;14.334;2023-06-10T10:04:40;6.05;;;4.72;;
39214;SDS011;24932;51.746;14.334;2023-06-10T10:08:40;14.65;;;5.15;;
39214;SDS011;24932;51.746;14.334;2023-06-10T10:12:41;8.95;;;5.28;;
39214;SDS011;24932;51.746;14.334;2023-06-10T10:16:41;8.38;;;4.55;;
39214;SDS011;24932;51.746;14.334;2023-06-10T10:20:43;8.18;;;4.28;;
39214;SDS011;24932;51.746;14.334;2023-06-10T10:24:42;9.25;;;5.1;;
39214;SDS011;24932;51.746;14.334;2023-06-10T10:28:41;8.07;;;4.15;;
39214;SDS011;24932;51.746;14.334;2023-06-10T10:32:43;9.88;;;5.47;;
39214;SDS011;24932;51.746;14.334;2023-06-10T10:36:40;8.3;;;4.9;;
39214;SDS011;24932;51.746;14.334;2023-06-10T10:40:40;6.9;;;5.18;;
39214;SDS011;24932;51.746;14.334;2023-06-10T10:44:39;6.2;;;4.45;;
39214;SDS011;24932;51.746;14.334;2023-06-10T10:48:40;6.8;;;4.18;;
39214;SDS011;24932;51.746;14.334;2023-06-10T10:52:46;7.28;;;4.45;;
39214;SDS011;24932;51.746;14.334;2023-06-10T10:57:09;5.47;;;4.25;;
39214;SDS011;24932;51.746;14.334;2023-06-10T11:00:43;11.82;;;4.47;;
39214;SDS011;24932;51.746;14.334;2023-06-10T11:04:44;7.8;;;4.55;;
39214;SDS011;24932;51.746;14.334;2023-06-10T11:08:49;8.1;;;5.25;;
39214;SDS011;24932;51.746;14.334;2023-06-10T11:12:42;10.45;;;4.8;;
39214;SDS011;24932;51.746;14.334;2023-06-10T11:16:41;9.23;;;4.6;;
39214;SDS011;24932;51.746;14.334;2023-06-10T11:20:42;8.4;;;4.87;;
39214;SDS011;24932;51.746;14.334;2023-06-10T11:24:41;13.82;;;4.72;;
39214;SDS011;24932;51.746;14.334;2023-06-10T11:28:40;7.68;;;4.35;;
39214;SDS011;24932;51.746;14.334;2023-06-10T11:32:41;9.07;;;4.53;;
39214;SDS011;24932;51.746;14.334;2023-06-10T11:36:41;5.68;;;4.3;;
39214;SDS011;24932;51.746;14.334;2023-06-10T11:40:45;4.97;;;4.07;;
39214;SDS011;24932;51.746;14.334;2023-06-10T11:44:46;7.43;;;4.35;;
39214;SDS011;24932;51.746;14.334;2023-06-10T11:48:47;7.75;;;3.78;;
39214;SDS011;24932;51.746;14.334;2023-06-10T11:52:40;5.97;;;3.5;;
39214;SDS011;24932;51.746;14.334;2023-06-10T11:56:40;10.57;;;3.92;;
39214;SDS011;24932;51.746;14.334;2023-06-10T12:00:45;14.15;;;4.07;;
39214;SDS011;24932;51.746;14.334;2023-06-10T12:04:40;5.97;;;4.3;;
39214;SDS011;24932;51.746;14.334;2023-06-10T12:08:41;9.95;;;4.57;;
39214;SDS011;24932;51.746;14.334;2023-06-10T12:12:41;7.45;;;3.95;;
39214;SDS011;24932;51.746;14.334;2023-06-10T12:16:45;4.28;;;3.7;;
39214;SDS011;24932;51.746;14.334;2023-06-10T12:20:41;6.05;;;4.2;;
39214;SDS011;24932;51.746;14.334;2023-06-10T12:24:43;8.32;;;3.9;;
39214;SDS011;24932;51.746;14.334;2023-06-10T12:28:40;6.65;;;4.82;;
39214;SDS011;24932;51.746;14.334;2023-06-10T12:32:41;8.07;;;5.05;;
39214;SDS011;24932;51.746;14.334;2023-06-10T12:36:44;10.1;;;5.18;;
39214;SDS011;24932;51.746;14.334;2023-06-10T12:40:39;9.65;;;4.65;;
39214;SDS011;24932;51.746;14.334;2023-06-10T12:44:40;9.35;;;4.8;;
39214;SDS011;24932;51.746;14.334;2023-06-10T12:48:48;8.9;;;4.9;;
39214;SDS011;24932;51.746;14.334;2023-06-10T12:52:39;14.73;;;5.35;;
39214;SDS011;24932;51.746;14.334;2023-06-10T12:56:40;5.18;;;4.53;;
39214;SDS011;24932;51.746;14.334;2023-06-10T13:00:40;6.68;;;4.95;;
39214;SDS011;24932;51.746;14.334;2023-06-10T13:04:40;6.2;;;4.65;;
39214;SDS011;24932;51.746;14.334;2023-06-10T13:08:40;7.1;;;5.18;;
39214;SDS011;24932;51.746;14.334;2023-06-10T13:12:48;9.3;;;4.85;;
39214;SDS011;24932;51.746;14.334;2023-06-10T13:16:40;9.2;;;5.15;;
39214;SDS011;24932;51.746;14.334;2023-06-10T13:20:41;10.95;;;5.53;;
39214;SDS011;24932;51.746;14.334;2023-06-10T13:24:41;6.85;;;4.93;;
39214;SDS011;24932;51.746;14.334;2023-06-10T13:28:41;8.57;;;5.35;;
39214;SDS011;24932;51.746;14.334;2023-06-10T13:32:40;6.05;;;4.5;;
39214;SDS011;24932;51.746;14.334;2023-06-10T13:36:40;10.13;;;5.1;;
39214;SDS011;24932;51.746;14.334;2023-06-10T13:40:40;10.1;;;4.53;;
39214;SDS011;24932;51.746;14.334;2023-06-10T13:44:40;7.53;;;3.83;;
39214;SDS011;24932;51.746;14.334;2023-06-10T13:48:40;3.97;;;3.4;;
39214;SDS011;24932;51.746;14.334;2023-06-10T13:52:40;3.7;;;3.3;;
39214;SDS011;24932;51.746;14.334;2023-06-10T13:56:40;4.0;;;2.75;;
39214;SDS011;24932;51.746;14.334;2023-06-10T14:00:40;5.78;;;2.62;;
39214;SDS011;24932;51.746;14.334;2023-06-10T14:04:40;4.7;;;3.35;;
39214;SDS011;24932;51.746;14.334;2023-06-10T14:08:40;3.35;;;2.95;;
39214;SDS011;24932;51.746;14.334;2023-06-10T14:12:40;4.82;;;3.15;;
39214;SDS011;24932;51.746;14.334;2023-06-10T14:16:43;5.9;;;4.0;;
39214;SDS011;24932;51.746;14.334;2023-06-10T14:20:41;7.65;;;4.0;;
39214;SDS011;24932;51.746;14.334;2023-06-10T14:24:41;6.37;;;3.78;;
39214;SDS011;24932;51.746;14.334;2023-06-10T14:28:40;6.93;;;4.03;;
39214;SDS011;24932;51.746;14.334;2023-06-10T14:32:40;5.32;;;4.3;;
39214;SDS011;24932;51.746;14.334;2023-06-10T14:36:41;8.65;;;4.82;;
39214;SDS011;24932;51.746;14.334;2023-06-10T14:40:41;5.4;;;4.47;;
39214;SDS011;24932;51.746;14.334;2023-06-10T14:44:40;7.32;;;4.28;;
39214;SDS011;24932;51.746;14.334;2023-06-10T14:48:41;9.43;;;4.78;;
39214;SDS011;24932;51.746;14.334;2023-06-10T14:52:40;6.3;;;4.4;;
39214;SDS011;24932;51.746;14.334;2023-06-10T14:56:40;9.43;;;4.37;;
39214;SDS011;24932;51.746;14.334;2023-06-10T15:00:40;7.25;;;4.07;;
39214;SDS011;24932;51.746;14.334;2023-06-10T15:04:40;8.3;;;4.45;;
39214;SDS011;24932;51.746;14.334;2023-06-10T15:08:39;9.8;;;4.25;;
39214;SDS011;24932;51.746;14.334;2023-06-10T15:12:41;8.73;;;4.37;;
39214;SDS011;24932;51.746;14.334;2023-06-10T15:16:41;4.62;;;3.92;;
39214;SDS011;24932;51.746;14.334;2023-06-10T15:20:40;5.55;;;3.72;;
39214;SDS011;24932;51.746;14.334;2023-06-10T15:24:40;8.9;;;4.35;;
39214;SDS011;24932;51.746;14.334;2023-06-10T15:28:40;5.22;;;4.03;;
39214;SDS011;24932;51.746;14.334;2023-06-10T15:32:41;4.53;;;3.7;;
39214;SDS011;24932;51.746;14.334;2023-06-10T15:36:40;7.68;;;4.8;;
39214;SDS011;24932;51.746;14.334;2023-06-10T15:40:40;8.13;;;4.22;;
39214;SDS011;24932;51.746;14.334;2023-06-10T15:44:40;9.7;;;4.53;;
39214;SDS011;24932;51.746;14.334;2023-06-10T15:48:39;4.87;;;3.7;;
39214;SDS011;24932;51.746;14.334;2023-06-10T15:52:40;13.2;;;4.35;;
39214;SDS011;24932;51.746;14.334;2023-06-10T15:56:40;11.52;;;4.15;;
39214;SDS011;24932;51.746;14.334;2023-06-10T16:00:40;6.7;;;4.05;;
39214;SDS011;24932;51.746;14.334;2023-06-10T16:04:40;10.05;;;4.12;;
39214;SDS011;24932;51.746;14.334;2023-06-10T16:08:40;6.53;;;3.75;;
39214;SDS011;24932;51.746;14.334;2023-06-10T16:12:40;10.05;;;4.28;;
39214;SDS011;24932;51.746;14.334;2023-06-10T16:16:40;8.65;;;4.2;;
39214;SDS011;24932;51.746;14.334;2023-06-10T16:20:40;7.3;;;3.6;;
39214;SDS011;24932;51.746;14.334;2023-06-10T16:24:40;8.43;;;4.22;;
39214;SDS011;24932;51.746;14.334;2023-06-10T16:28:40;9.63;;;4.0;;
39214;SDS011;24932;51.746;14.334;2023-06-10T16:32:40;9.1;;;4.72;;
39214;SDS011;24932;51.746;14.334;2023-06-10T16:36:40;8.4;;;4.18;;
39214;SDS011;24932;51.746;14.334;2023-06-10T16:40:40;11.82;;;3.97;;
39214;SDS011;24932;51.746;14.334;2023-06-10T16:44:41;10.68;;;4.3;;
39214;SDS011;24932;51.746;14.334;2023-06-10T16:48:40;7.32;;;4.03;;
39214;SDS011;24932;51.746;14.334;2023-06-10T16:52:40;4.55;;;4.15;;
39214;SDS011;24932;51.746;14.334;2023-06-10T16:56:40;9.85;;;3.95;;
39214;SDS011;24932;51.746;14.334;2023-06-10T17:00:41;7.53;;;4.5;;
39214;SDS011;24932;51.746;14.334;2023-06-10T17:04:40;12.55;;;4.95;;
39214;SDS011;24932;51.746;14.334;2023-06-10T17:08:40;10.2;;;4.22;;
39214;SDS011;24932;51.746;14.334;2023-06-10T17:12:40;6.3;;;3.92;;
39214;SDS011;24932;51.746;14.334;2023-06-10T17:16:40;5.97;;;4.12;;
39214;SDS011;24932;51.746;14.334;2023-06-10T17:20:41;6.87;;;4.53;;
39214;SDS011;24932;51.746;14.334;2023-06-10T17:24:40;7.57;;;4.15;;
39214;SDS011;24932;51.746;14.334;2023-06-10T17:28:40;5.6;;;4.45;;
39214;SDS011;24932;51.746;14.334;2023-06-10T17:32:40;7.2;;;5.53;;
39214;SDS011;24932;51.746;14.334;2023-06-10T17:36:40;8.45;;;4.55;;
39214;SDS011;24932;51.746;14.334;2023-06-10T17:40:40;11.2;;;4.85;;
39214;SDS011;24932;51.746;14.334;2023-06-10T17:44:40;7.07;;;4.3;;
39214;SDS011;24932;51.746;14.334;2023-06-10T17:48:40;5.6;;;4.1;;
39214;SDS011;24932;51.746;14.334;2023-06-10T17:52:40;6.07;;;4.1;;
39214;SDS011;24932;51.746;14.334;2023-06-10T17:56:41;5.72;;;4.45;;
39214;SDS011;24932;51.746;14.334;2023-06-10T18:00:40;5.68;;;3.92;;
39214;SDS011;24932;51.746;14.334;2023-06-10T18:04:40;8.25;;;4.12;;
39214;SDS011;24932;51.746;14.334;2023-06-10T18:08:41;9.65;;;4.57;;
39214;SDS011;24932;51.746;14.334;2023-06-10T18:12:40;6.68;;;4.12;;
39214;SDS011;24932;51.746;14.334;2023-06-10T18:16:41;9.05;;;4.82;;
39214;SDS011;24932;51.746;14.334;2023-06-10T18:20:41;6.8;;;4.0;;
39214;SDS011;24932;51.746;14.334;2023-06-10T18:24:40;7.15;;;4.3;;
39214;SDS011;24932;51.746;14.334;2023-06-10T18:28:40;11.0;;;4.4;;
39214;SDS011;24932;51.746;14.334;2023-06-10T18:32:40;9.38;;;4.28;;
39214;SDS011;24932;51.746;14.334;2023-06-10T18:36:39;12.45;;;4.37;;
39214;SDS011;24932;51.746;14.334;2023-06-10T18:40:40;11.65;;;4.7;;
39214;SDS011;24932;51.746;14.334;2023-06-10T18:44:40;9.18;;;4.57;;
39214;SDS011;24932;51.746;14.334;2023-06-10T18:48:40;18.45;;;3.95;;
39214;SDS011;24932;51.746;14.334;2023-06-10T18:52:40;10.63;;;4.18;;
39214;SDS011;24932;51.746;14.334;2023-06-10T18:56:40;7.68;;;3.97;;
39214;SDS011;24932;51.746;14.334;2023-06-10T19:00:40;6.22;;;3.72;;
39214;SDS011;24932;51.746;14.334;2023-06-10T19:04:40;9.45;;;4.3;;
39214;SDS011;24932;51.746;14.334;2023-06-10T19:08:40;5.4;;;3.83;;
39214;SDS011;24932;51.746;14.334;2023-06-10T19:12:40;7.15;;;4.0;;
39214;SDS011;24932;51.746;14.334;2023-06-10T19:16:40;6.25;;;3.75;;
39214;SDS011;24932;51.746;14.334;2023-06-10T19:20:41;5.05;;;4.0;;
39214;SDS011;24932;51.746;14.334;2023-06-10T19:24:40;5.87;;;3.58;;
39214;SDS011;24932;51.746;14.334;2023-06-10T19:28:40;5.6;;;3.8;;
39214;SDS011;24932;51.746;14.334;2023-06-10T19:32:40;5.9;;;3.87;;
39214;SDS011;24932;51.746;14.334;2023-06-10T19:36:40;6.15;;;3.72;;
39214;SDS011;24932;51.746;14.334;2023-06-10T19:40:41;9.63;;;3.9;;
39214;SDS011;24932;51.746;14.334;2023-06-10T19:44:40;5.4;;;3.3;;
39214;SDS011;24932;51.746;14.334;2023-06-10T19:48:40;6.12;;;3.58;;
39214;SDS011;24932;51.746;14.334;2023-06-10T19:52:41;8.52;;;3.37;;
39214;SDS011;24932;51.746;14.334;2023-06-10T19:56:40;7.5;;;3.62;;
39214;SDS011;24932;51.746;14.334;2023-06-10T20:00:41;5.03;;;4.0;;
39214;SDS011;24932;51.746;14.334;2023-06-10T20:04:41;5.43;;;3.6;;
39214;SDS011;24932;51.746;14.334;2023-06-10T20:08:40;6.05;;;3.5;;
39214;SDS011;24932;51.746;14.334;2023-06-10T20:12:41;3.37;;;3.05;;
39214;SDS011;24932;51.746;14.334;2023-06-10T20:16:40;6.15;;;4.03;;
39214;SDS011;24932;51.746;14.334;2023-06-10T20:20:40;5.22;;;3.42;;
39214;SDS011;24932;51.746;14.334;2023-06-10T20:24:40;6.28;;;3.12;;
39214;SDS011;24932;51.746;14.334;2023-06-10T20:28:39;5.07;;;3.35;;
39214;SDS011;24932;51.746;14.334;2023-06-10T20:32:41;5.4;;;3.22;;
39214;SDS011;24932;51.746;14.334;2023-06-10T20:36:40;7.75;;;3.7;;
39214;SDS011;24932;51.746;14.334;2023-06-10T20:40:41;11.43;;;3.28;;
39214;SDS011;24932;51.746;14.334;2023-06-10T20:44:40;5.75;;;3.0;;
39214;SDS011;24932;51.746;14.334;2023-06-10T20:48:40;7.5;;;3.05;;
39214;SDS011;24932;51.746;14.334;2023-06-10T20:52:40;6.75;;;3.42;;
39214;SDS011;24932;51.746;14.334;2023-06-10T20:56:40;10.73;;;3.17;;
39214;SDS011;24932;51.746;14.334;2023-06-10T21:00:40;5.87;;;2.83;;
39214;SDS011;24932;51.746;14.334;2023-06-10T21:04:40;8.15;;;3.37;;
39214;SDS011;24932;51.746;14.334;2023-06-10T21:08:41;4.65;;;2.87;;
39214;SDS011;24932;51.746;14.334;2023-06-10T21:12:40;8.4;;;3.12;;
39214;SDS011;24932;51.746;14.334;2023-06-10T21:16:40;11.02;;;3.67;;
39214;SDS011;24932;51.746;14.334;2023-06-10T21:20:40;6.3;;;3.45;;
39214;SDS011;24932;51.746;14.334;2023-06-10T21:24:40;8.02;;;3.28;;
39214;SDS011;24932;51.746;14.334;2023-06-10T21:28:40;10.5;;;3.0;;
39214;SDS011;24932;51.746;14.334;2023-06-10T21:32:40;5.5;;;3.45;;
39214;SDS011;24932;51.746;14.334;2023-06-10T21:36:40;7.68;;;3.0;;
39214;SDS011;24932;51.746;14.334;2023-06-10T21:40:40;6.2;;;3.1;;
39214;SDS011;24932;51.746;14.334;2023-06-10T21:44:41;5.22;;;2.78;;
39214;SDS011;24932;51.746;14.334;2023-06-10T21:48:41;6.1;;;3.47;;
39214;SDS011;24932;51.746;14.334;2023-06-10T21:52:40;4.87;;;2.7;;
39214;SDS011;24932;51.746;14.334;2023-06-10T21:56:40;5.75;;;3.62;;
39214;SDS011;24932;51.746;14.334;2023-06-10T22:00:40;17.1;;;3.25;;
39214;SDS011;24932;51.746;14.334;2023-06-10T22:04:43;7.65;;;3.35;;
39214;SDS011;24932;51.746;14.334;2023-06-10T22:08:40;3.37;;;2.85;;
39214;SDS011;24932;51.746;14.334;2023-06-10T22:12:40;6.97;;;3.78;;
39214;SDS011;24932;51.746;14.334;2023-06-10T22:16:40;7.72;;;3.37;;
39214;SDS011;24932;51.746;14.334;2023-06-10T22:20:40;5.15;;;3.37;;
39214;SDS011;24932;51.746;14.334;2023-06-10T22:24:40;6.43;;;3.78;;
39214;SDS011;24932;51.746;14.334;2023-06-10T22:28:40;5.47;;;3.33;;
39214;SDS011;24932;51.746;14.334;2023-06-10T22:32:41;5.22;;;3.55;;
39214;SDS011;24932;51.746;14.334;2023-06-10T22:36:40;8.45;;;3.65;;
39214;SDS011;24932;51.746;14.334;2023-06-10T22:40:41;5.97;;;3.55;;
39214;SDS011;24932;51.746;14.334;2023-06-10T22:44:40;7.93;;;4.15;;
39214;SDS011;24932;51.746;14.334;2023-06-10T22:48:40;7.03;;;3.22;;
39214;SDS011;24932;51.746;14.334;2023-06-10T22:52:41;11.75;;;3.0;;
39214;SDS011;24932;51.746;14.334;2023-06-10T22:56:40;11.52;;;3.92;;
39214;SDS011;24932;51.746;14.334;2023-06-10T23:00:40;12.98;;;3.1;;
39214;SDS011;24932;51.746;14.334;2023-06-10T23:04:40;5.93;;;2.85;;
39214;SDS011;24932;51.746;14.334;2023-06-10T23:08:41;6.05;;;3.35;;
39214;SDS011;24932;51.746;14.334;2023-06-10T23:12:40;7.07;;;2.97;;
39214;SDS011;24932;51.746;14.334;2023-06-10T23:16:40;5.2;;;2.75;;
39214;SDS011;24932;51.746;14.334;2023-06-10T23:20:40;5.95;;;3.15;;
39214;SDS011;24932;51.746;14.334;2023-06-10T23:24:40;11.88;;;3.67;;
39214;SDS011;24932;51.746;14.334;2023-06-10T23:28:41;9.65;;;3.05;;
39214;SDS011;24932;51.746;14.334;2023-06-10T23:32:41;4.22;;;2.5;;
39214;SDS011;24932;51.746;14.334;2023-06-10T23:36:40;10.23;;;3.05;;
39214;SDS011;24932;51.746;14.334;2023-06-10T23:40:40;3.97;;;2.8;;
39214;SDS011;24932;51.746;14.334;2023-06-10T23:44:40;15.3;;;3.97;;